sensor_id;sensor_type;location;lat;lon;timestamp;P1;durP1;ratioP1;P2;durP2;ratioP2
62610;SDS011;48683;48.084;17.272;2023-02-28T00:01:30;14.23;;;7.93;;
62610;SDS011;48683;48.084;17.272;2023-02-28T00:03:56;14.80;;;7.63;;
62610;SDS011;48683;48.084;17.272;2023-02-28T00:06:22;12.15;;;7.68;;
62610;SDS011;48683;48.084;17.272;2023-02-28T00:08:49;14.18;;;7.45;;
62610;SDS011;48683;48.084;17.272;2023-02-28T00:11:14;14.02;;;7.93;;
62610;SDS011;48683;48.084;17.272;2023-02-28T00:13:41;12.13;;;7.90;;
62610;SDS011;48683;48.084;17.272;2023-02-28T00:16:09;14.35;;;7.68;;
62610;SDS011;48683;48.084;17.272;2023-02-28T00:18:38;13.65;;;8.13;;
62610;SDS011;48683;48.084;17.272;2023-02-28T00:21:04;13.95;;;8.07;;
62610;SDS011;48683;48.084;17.272;2023-02-28T00:23:30;13.75;;;8.02;;
62610;SDS011;48683;48.084;17.272;2023-02-28T00:25:55;13.68;;;7.88;;
62610;SDS011;48683;48.084;17.272;2023-02-28T00:28:21;15.05;;;8.52;;
62610;SDS011;48683;48.084;17.272;2023-02-28T00:30:47;13.20;;;8.52;;
62610;SDS011;48683;48.084;17.272;2023-02-28T00:33:12;16.23;;;8.85;;
62610;SDS011;48683;48.084;17.272;2023-02-28T00:35:38;16.50;;;8.02;;
62610;SDS011;48683;48.084;17.272;2023-02-28T00:38:03;14.73;;;8.60;;
62610;SDS011;48683;48.084;17.272;2023-02-28T00:40:28;15.65;;;9.13;;
62610;SDS011;48683;48.084;17.272;2023-02-28T00:42:54;15.57;;;8.73;;
62610;SDS011;48683;48.084;17.272;2023-02-28T00:45:19;16.30;;;8.90;;
62610;SDS011;48683;48.084;17.272;2023-02-28T00:47:45;13.02;;;8.75;;
62610;SDS011;48683;48.084;17.272;2023-02-28T00:50:14;14.93;;;8.80;;
62610;SDS011;48683;48.084;17.272;2023-02-28T00:52:41;13.13;;;8.55;;
62610;SDS011;48683;48.084;17.272;2023-02-28T00:55:07;13.70;;;8.60;;
62610;SDS011;48683;48.084;17.272;2023-02-28T00:57:32;15.13;;;8.77;;
62610;SDS011;48683;48.084;17.272;2023-02-28T00:59:58;13.48;;;8.35;;
62610;SDS011;48683;48.084;17.272;2023-02-28T01:02:23;13.18;;;8.50;;
62610;SDS011;48683;48.084;17.272;2023-02-28T01:04:48;14.70;;;8.65;;
62610;SDS011;48683;48.084;17.272;2023-02-28T01:07:14;14.82;;;8.77;;
62610;SDS011;48683;48.084;17.272;2023-02-28T01:09:39;15.80;;;8.82;;
62610;SDS011;48683;48.084;17.272;2023-02-28T01:12:06;15.57;;;9.25;;
62610;SDS011;48683;48.084;17.272;2023-02-28T01:14:32;17.25;;;9.70;;
62610;SDS011;48683;48.084;17.272;2023-02-28T01:16:59;16.33;;;9.23;;
62610;SDS011;48683;48.084;17.272;2023-02-28T01:19:24;15.25;;;9.00;;
62610;SDS011;48683;48.084;17.272;2023-02-28T01:21:50;15.60;;;8.90;;
62610;SDS011;48683;48.084;17.272;2023-02-28T01:24:15;14.32;;;8.68;;
62610;SDS011;48683;48.084;17.272;2023-02-28T01:26:40;13.82;;;8.40;;
62610;SDS011;48683;48.084;17.272;2023-02-28T01:29:06;14.60;;;9.07;;
62610;SDS011;48683;48.084;17.272;2023-02-28T01:31:31;16.65;;;9.27;;
62610;SDS011;48683;48.084;17.272;2023-02-28T01:33:57;13.88;;;8.15;;
62610;SDS011;48683;48.084;17.272;2023-02-28T01:36:23;14.13;;;8.50;;
62610;SDS011;48683;48.084;17.272;2023-02-28T01:38:49;16.77;;;9.13;;
62610;SDS011;48683;48.084;17.272;2023-02-28T01:41:19;15.25;;;9.18;;
62610;SDS011;48683;48.084;17.272;2023-02-28T01:46:12;15.25;;;9.43;;
62610;SDS011;48683;48.084;17.272;2023-02-28T01:48:44;17.25;;;9.55;;
62610;SDS011;48683;48.084;17.272;2023-02-28T01:51:18;16.95;;;9.35;;
62610;SDS011;48683;48.084;17.272;2023-02-28T01:53:56;14.15;;;8.90;;
62610;SDS011;48683;48.084;17.272;2023-02-28T01:56:29;17.02;;;9.43;;
62610;SDS011;48683;48.084;17.272;2023-02-28T01:58:57;18.05;;;10.50;;
62610;SDS011;48683;48.084;17.272;2023-02-28T02:01:23;14.45;;;9.52;;
62610;SDS011;48683;48.084;17.272;2023-02-28T02:03:53;14.30;;;9.02;;
62610;SDS011;48683;48.084;17.272;2023-02-28T02:06:22;19.15;;;10.82;;
62610;SDS011;48683;48.084;17.272;2023-02-28T02:08:52;16.10;;;9.95;;
62610;SDS011;48683;48.084;17.272;2023-02-28T02:11:18;17.33;;;9.52;;
62610;SDS011;48683;48.084;17.272;2023-02-28T02:14:05;17.63;;;9.73;;
62610;SDS011;48683;48.084;17.272;2023-02-28T02:17:07;16.48;;;10.98;;
62610;SDS011;48683;48.084;17.272;2023-02-28T02:27:32;21.05;;;11.63;;
62610;SDS011;48683;48.084;17.272;2023-02-28T02:35:52;15.57;;;9.75;;
62610;SDS011;48683;48.084;17.272;2023-02-28T02:41:17;22.25;;;11.10;;
62610;SDS011;48683;48.084;17.272;2023-02-28T02:43:50;16.65;;;11.07;;
62610;SDS011;48683;48.084;17.272;2023-02-28T02:46:19;17.58;;;10.95;;
62610;SDS011;48683;48.084;17.272;2023-02-28T02:48:49;17.25;;;10.35;;
62610;SDS011;48683;48.084;17.272;2023-02-28T02:51:18;17.88;;;11.38;;
62610;SDS011;48683;48.084;17.272;2023-02-28T02:53:48;20.40;;;11.68;;
62610;SDS011;48683;48.084;17.272;2023-02-28T02:56:17;17.60;;;10.93;;
62610;SDS011;48683;48.084;17.272;2023-02-28T02:58:46;18.98;;;11.57;;
62610;SDS011;48683;48.084;17.272;2023-02-28T03:01:23;19.83;;;11.30;;
62610;SDS011;48683;48.084;17.272;2023-02-28T03:03:55;15.98;;;10.77;;
62610;SDS011;48683;48.084;17.272;2023-02-28T03:06:22;16.85;;;10.85;;
62610;SDS011;48683;48.084;17.272;2023-02-28T03:08:47;18.08;;;11.85;;
62610;SDS011;48683;48.084;17.272;2023-02-28T03:11:13;22.58;;;11.38;;
62610;SDS011;48683;48.084;17.272;2023-02-28T03:13:49;18.52;;;12.05;;
62610;SDS011;48683;48.084;17.272;2023-02-28T03:18:54;32.95;;;12.75;;
62610;SDS011;48683;48.084;17.272;2023-02-28T03:21:29;18.52;;;10.80;;
62610;SDS011;48683;48.084;17.272;2023-02-28T03:24:34;18.63;;;11.82;;
62610;SDS011;48683;48.084;17.272;2023-02-28T03:27:03;18.95;;;11.07;;
62610;SDS011;48683;48.084;17.272;2023-02-28T03:32:11;18.23;;;11.27;;
62610;SDS011;48683;48.084;17.272;2023-02-28T03:34:51;21.67;;;12.73;;
62610;SDS011;48683;48.084;17.272;2023-02-28T03:37:24;21.77;;;12.63;;
62610;SDS011;48683;48.084;17.272;2023-02-28T03:42:29;17.50;;;11.15;;
62610;SDS011;48683;48.084;17.272;2023-02-28T03:45:18;21.88;;;11.85;;
62610;SDS011;48683;48.084;17.272;2023-02-28T03:47:58;17.80;;;11.23;;
62610;SDS011;48683;48.084;17.272;2023-02-28T03:50:29;21.52;;;11.35;;
62610;SDS011;48683;48.084;17.272;2023-02-28T03:53:02;16.77;;;11.15;;
62610;SDS011;48683;48.084;17.272;2023-02-28T03:55:49;21.08;;;11.20;;
62610;SDS011;48683;48.084;17.272;2023-02-28T03:58:26;18.67;;;11.82;;
62610;SDS011;48683;48.084;17.272;2023-02-28T04:00:56;20.48;;;12.07;;
62610;SDS011;48683;48.084;17.272;2023-02-28T04:03:34;23.60;;;11.27;;
62610;SDS011;48683;48.084;17.272;2023-02-28T04:06:02;22.05;;;12.55;;
62610;SDS011;48683;48.084;17.272;2023-02-28T04:08:30;18.13;;;12.13;;
62610;SDS011;48683;48.084;17.272;2023-02-28T04:10:57;20.38;;;12.38;;
62610;SDS011;48683;48.084;17.272;2023-02-28T04:13:29;21.23;;;11.95;;
62610;SDS011;48683;48.084;17.272;2023-02-28T04:15:54;19.88;;;11.13;;
62610;SDS011;48683;48.084;17.272;2023-02-28T04:18:20;20.85;;;12.38;;
62610;SDS011;48683;48.084;17.272;2023-02-28T04:20:45;23.95;;;12.45;;
62610;SDS011;48683;48.084;17.272;2023-02-28T04:23:10;20.48;;;12.00;;
62610;SDS011;48683;48.084;17.272;2023-02-28T04:25:36;22.40;;;11.43;;
62610;SDS011;48683;48.084;17.272;2023-02-28T04:28:01;20.90;;;11.85;;
62610;SDS011;48683;48.084;17.272;2023-02-28T04:30:26;19.67;;;11.45;;
62610;SDS011;48683;48.084;17.272;2023-02-28T04:32:52;23.15;;;11.48;;
62610;SDS011;48683;48.084;17.272;2023-02-28T04:35:17;22.02;;;12.40;;
62610;SDS011;48683;48.084;17.272;2023-02-28T04:37:42;17.05;;;11.48;;
62610;SDS011;48683;48.084;17.272;2023-02-28T04:40:08;21.27;;;11.20;;
62610;SDS011;48683;48.084;17.272;2023-02-28T04:42:34;16.25;;;10.77;;
62610;SDS011;48683;48.084;17.272;2023-02-28T04:45:03;17.30;;;10.30;;
62610;SDS011;48683;48.084;17.272;2023-02-28T04:47:29;21.30;;;11.05;;
62610;SDS011;48683;48.084;17.272;2023-02-28T04:49:55;19.42;;;11.55;;
62610;SDS011;48683;48.084;17.272;2023-02-28T04:52:20;18.38;;;9.98;;
62610;SDS011;48683;48.084;17.272;2023-02-28T04:54:46;15.77;;;9.82;;
62610;SDS011;48683;48.084;17.272;2023-02-28T04:57:11;18.63;;;10.20;;
62610;SDS011;48683;48.084;17.272;2023-02-28T04:59:36;16.58;;;10.35;;
62610;SDS011;48683;48.084;17.272;2023-02-28T05:02:02;16.95;;;9.48;;
62610;SDS011;48683;48.084;17.272;2023-02-28T05:04:31;17.92;;;9.68;;
62610;SDS011;48683;48.084;17.272;2023-02-28T05:07:00;18.67;;;10.43;;
62610;SDS011;48683;48.084;17.272;2023-02-28T05:09:26;18.27;;;10.90;;
62610;SDS011;48683;48.084;17.272;2023-02-28T05:11:53;16.70;;;10.93;;
62610;SDS011;48683;48.084;17.272;2023-02-28T05:14:18;18.67;;;10.18;;
62610;SDS011;48683;48.084;17.272;2023-02-28T05:16:43;18.42;;;10.43;;
62610;SDS011;48683;48.084;17.272;2023-02-28T05:19:09;19.85;;;10.73;;
62610;SDS011;48683;48.084;17.272;2023-02-28T05:21:38;18.65;;;11.15;;
62610;SDS011;48683;48.084;17.272;2023-02-28T05:24:11;19.95;;;10.63;;
62610;SDS011;48683;48.084;17.272;2023-02-28T05:26:39;18.02;;;10.68;;
62610;SDS011;48683;48.084;17.272;2023-02-28T05:29:06;17.42;;;10.98;;
62610;SDS011;48683;48.084;17.272;2023-02-28T05:31:31;17.88;;;10.52;;
62610;SDS011;48683;48.084;17.272;2023-02-28T05:33:57;19.35;;;11.27;;
62610;SDS011;48683;48.084;17.272;2023-02-28T05:36:22;21.95;;;12.43;;
62610;SDS011;48683;48.084;17.272;2023-02-28T05:38:48;18.20;;;11.40;;
62610;SDS011;48683;48.084;17.272;2023-02-28T05:41:15;18.00;;;11.48;;
62610;SDS011;48683;48.084;17.272;2023-02-28T05:43:41;20.40;;;11.70;;
62610;SDS011;48683;48.084;17.272;2023-02-28T05:46:07;17.85;;;10.43;;
62610;SDS011;48683;48.084;17.272;2023-02-28T05:48:35;17.55;;;10.32;;
62610;SDS011;48683;48.084;17.272;2023-02-28T05:51:01;18.02;;;11.25;;
62610;SDS011;48683;48.084;17.272;2023-02-28T05:53:27;17.33;;;10.43;;
62610;SDS011;48683;48.084;17.272;2023-02-28T05:55:53;17.67;;;10.98;;
62610;SDS011;48683;48.084;17.272;2023-02-28T05:58:18;20.15;;;11.18;;
62610;SDS011;48683;48.084;17.272;2023-02-28T06:00:44;19.05;;;10.70;;
62610;SDS011;48683;48.084;17.272;2023-02-28T06:03:10;18.08;;;10.63;;
62610;SDS011;48683;48.084;17.272;2023-02-28T06:05:35;18.58;;;9.73;;
62610;SDS011;48683;48.084;17.272;2023-02-28T06:08:01;16.10;;;9.57;;
62610;SDS011;48683;48.084;17.272;2023-02-28T06:10:26;17.52;;;10.90;;
62610;SDS011;48683;48.084;17.272;2023-02-28T06:12:51;16.63;;;10.35;;
62610;SDS011;48683;48.084;17.272;2023-02-28T06:15:17;15.57;;;10.32;;
62610;SDS011;48683;48.084;17.272;2023-02-28T06:17:43;21.83;;;11.40;;
62610;SDS011;48683;48.084;17.272;2023-02-28T06:20:09;18.20;;;11.10;;
62610;SDS011;48683;48.084;17.272;2023-02-28T06:22:37;16.85;;;9.75;;
62610;SDS011;48683;48.084;17.272;2023-02-28T06:25:03;18.52;;;11.27;;
62610;SDS011;48683;48.084;17.272;2023-02-28T06:27:30;18.27;;;10.38;;
62610;SDS011;48683;48.084;17.272;2023-02-28T06:29:57;18.95;;;10.88;;
62610;SDS011;48683;48.084;17.272;2023-02-28T06:32:22;18.25;;;9.75;;
62610;SDS011;48683;48.084;17.272;2023-02-28T06:34:47;18.73;;;10.65;;
62610;SDS011;48683;48.084;17.272;2023-02-28T06:37:13;21.65;;;10.55;;
62610;SDS011;48683;48.084;17.272;2023-02-28T06:39:39;20.17;;;10.75;;
62610;SDS011;48683;48.084;17.272;2023-02-28T06:42:04;18.95;;;10.68;;
62610;SDS011;48683;48.084;17.272;2023-02-28T06:44:30;19.75;;;10.82;;
62610;SDS011;48683;48.084;17.272;2023-02-28T06:47:00;17.33;;;11.30;;
62610;SDS011;48683;48.084;17.272;2023-02-28T06:49:28;17.67;;;10.35;;
62610;SDS011;48683;48.084;17.272;2023-02-28T06:51:53;20.35;;;11.10;;
62610;SDS011;48683;48.084;17.272;2023-02-28T06:54:19;17.60;;;10.70;;
62610;SDS011;48683;48.084;17.272;2023-02-28T06:56:45;18.98;;;10.57;;
62610;SDS011;48683;48.084;17.272;2023-02-28T06:59:10;19.70;;;10.32;;
62610;SDS011;48683;48.084;17.272;2023-02-28T07:01:35;18.25;;;10.23;;
62610;SDS011;48683;48.084;17.272;2023-02-28T07:04:01;18.77;;;11.02;;
62610;SDS011;48683;48.084;17.272;2023-02-28T07:06:26;19.25;;;10.68;;
62610;SDS011;48683;48.084;17.272;2023-02-28T07:08:53;15.52;;;10.23;;
62610;SDS011;48683;48.084;17.272;2023-02-28T07:11:19;19.10;;;10.15;;
62610;SDS011;48683;48.084;17.272;2023-02-28T07:13:47;21.67;;;11.55;;
62610;SDS011;48683;48.084;17.272;2023-02-28T07:16:13;19.00;;;10.65;;
62610;SDS011;48683;48.084;17.272;2023-02-28T07:18:38;18.10;;;9.63;;
62610;SDS011;48683;48.084;17.272;2023-02-28T07:21:06;17.08;;;9.93;;
62610;SDS011;48683;48.084;17.272;2023-02-28T07:23:33;17.05;;;10.57;;
62610;SDS011;48683;48.084;17.272;2023-02-28T07:25:58;17.77;;;11.00;;
62610;SDS011;48683;48.084;17.272;2023-02-28T07:28:24;15.75;;;10.18;;
62610;SDS011;48683;48.084;17.272;2023-02-28T07:30:49;16.65;;;10.15;;
62610;SDS011;48683;48.084;17.272;2023-02-28T07:33:14;19.15;;;10.48;;
62610;SDS011;48683;48.084;17.272;2023-02-28T07:35:40;16.67;;;10.45;;
62610;SDS011;48683;48.084;17.272;2023-02-28T07:38:05;18.88;;;10.57;;
62610;SDS011;48683;48.084;17.272;2023-02-28T07:40:32;17.77;;;9.55;;
62610;SDS011;48683;48.084;17.272;2023-02-28T07:42:58;18.80;;;10.60;;
62610;SDS011;48683;48.084;17.272;2023-02-28T07:45:28;22.13;;;11.20;;
62610;SDS011;48683;48.084;17.272;2023-02-28T07:47:54;20.35;;;10.90;;
62610;SDS011;48683;48.084;17.272;2023-02-28T07:50:20;17.17;;;10.70;;
62610;SDS011;48683;48.084;17.272;2023-02-28T07:52:46;16.08;;;10.25;;
62610;SDS011;48683;48.084;17.272;2023-02-28T07:55:11;17.90;;;10.25;;
62610;SDS011;48683;48.084;17.272;2023-02-28T07:57:38;17.95;;;10.45;;
62610;SDS011;48683;48.084;17.272;2023-02-28T08:00:04;18.13;;;10.23;;
62610;SDS011;48683;48.084;17.272;2023-02-28T08:02:31;18.25;;;10.35;;
62610;SDS011;48683;48.084;17.272;2023-02-28T08:04:56;16.38;;;10.20;;
62610;SDS011;48683;48.084;17.272;2023-02-28T08:07:22;16.00;;;10.70;;
62610;SDS011;48683;48.084;17.272;2023-02-28T08:09:47;17.50;;;9.93;;
62610;SDS011;48683;48.084;17.272;2023-02-28T08:12:12;17.88;;;10.38;;
62610;SDS011;48683;48.084;17.272;2023-02-28T08:14:38;16.25;;;9.80;;
62610;SDS011;48683;48.084;17.272;2023-02-28T08:17:04;14.32;;;9.20;;
62610;SDS011;48683;48.084;17.272;2023-02-28T08:19:30;19.88;;;11.00;;
62610;SDS011;48683;48.084;17.272;2023-02-28T08:21:55;18.65;;;10.55;;
62610;SDS011;48683;48.084;17.272;2023-02-28T08:24:21;15.95;;;10.55;;
62610;SDS011;48683;48.084;17.272;2023-02-28T08:26:46;17.13;;;11.57;;
62610;SDS011;48683;48.084;17.272;2023-02-28T08:29:12;19.13;;;10.13;;
62610;SDS011;48683;48.084;17.272;2023-02-28T08:31:37;15.02;;;9.52;;
62610;SDS011;48683;48.084;17.272;2023-02-28T08:34:06;18.00;;;11.15;;
62610;SDS011;48683;48.084;17.272;2023-02-28T08:36:32;16.42;;;9.95;;
62610;SDS011;48683;48.084;17.272;2023-02-28T08:38:58;20.08;;;11.07;;
62610;SDS011;48683;48.084;17.272;2023-02-28T08:41:24;14.05;;;10.57;;
62610;SDS011;48683;48.084;17.272;2023-02-28T08:43:50;16.92;;;10.35;;
62610;SDS011;48683;48.084;17.272;2023-02-28T08:46:16;16.80;;;9.65;;
62610;SDS011;48683;48.084;17.272;2023-02-28T08:48:41;15.13;;;10.00;;
62610;SDS011;48683;48.084;17.272;2023-02-28T08:51:08;19.30;;;11.32;;
62610;SDS011;48683;48.084;17.272;2023-02-28T08:53:36;16.35;;;10.25;;
62610;SDS011;48683;48.084;17.272;2023-02-28T08:56:04;16.25;;;9.82;;
62610;SDS011;48683;48.084;17.272;2023-02-28T08:58:31;13.10;;;8.88;;
62610;SDS011;48683;48.084;17.272;2023-02-28T09:00:57;16.05;;;9.38;;
62610;SDS011;48683;48.084;17.272;2023-02-28T09:03:22;14.02;;;8.82;;
62610;SDS011;48683;48.084;17.272;2023-02-28T09:05:55;14.52;;;9.35;;
62610;SDS011;48683;48.084;17.272;2023-02-28T09:08:22;14.98;;;9.32;;
62610;SDS011;48683;48.084;17.272;2023-02-28T09:10:48;12.65;;;9.70;;
62610;SDS011;48683;48.084;17.272;2023-02-28T09:13:14;14.45;;;9.20;;
62610;SDS011;48683;48.084;17.272;2023-02-28T09:15:39;14.45;;;9.45;;
62610;SDS011;48683;48.084;17.272;2023-02-28T09:18:05;13.63;;;9.48;;
62610;SDS011;48683;48.084;17.272;2023-02-28T09:20:30;14.77;;;10.27;;
62610;SDS011;48683;48.084;17.272;2023-02-28T09:22:55;15.52;;;9.73;;
62610;SDS011;48683;48.084;17.272;2023-02-28T09:25:21;16.08;;;9.00;;
62610;SDS011;48683;48.084;17.272;2023-02-28T09:27:46;13.88;;;9.00;;
62610;SDS011;48683;48.084;17.272;2023-02-28T09:30:12;13.80;;;9.10;;
62610;SDS011;48683;48.084;17.272;2023-02-28T09:32:38;14.70;;;8.82;;
62610;SDS011;48683;48.084;17.272;2023-02-28T09:35:03;12.32;;;7.80;;
62610;SDS011;48683;48.084;17.272;2023-02-28T09:37:29;13.03;;;8.70;;
62610;SDS011;48683;48.084;17.272;2023-02-28T09:39:56;14.80;;;9.40;;
62610;SDS011;48683;48.084;17.272;2023-02-28T09:42:23;11.60;;;8.00;;
62610;SDS011;48683;48.084;17.272;2023-02-28T09:44:53;12.35;;;7.90;;
62610;SDS011;48683;48.084;17.272;2023-02-28T09:47:31;12.38;;;8.20;;
62610;SDS011;48683;48.084;17.272;2023-02-28T09:50:11;12.00;;;7.68;;
62610;SDS011;48683;48.084;17.272;2023-02-28T09:52:40;12.07;;;7.22;;
62610;SDS011;48683;48.084;17.272;2023-02-28T09:55:20;11.38;;;7.57;;
62610;SDS011;48683;48.084;17.272;2023-02-28T09:57:47;11.05;;;8.13;;
62610;SDS011;48683;48.084;17.272;2023-02-28T10:00:21;9.52;;;7.47;;
62610;SDS011;48683;48.084;17.272;2023-02-28T10:03:35;11.10;;;7.30;;
62610;SDS011;48683;48.084;17.272;2023-02-28T10:05:56;9.35;;;6.47;;
62610;SDS011;48683;48.084;17.272;2023-02-28T10:11:29;9.02;;;6.32;;
62610;SDS011;48683;48.084;17.272;2023-02-28T10:14:02;9.90;;;6.65;;
62610;SDS011;48683;48.084;17.272;2023-02-28T10:19:25;11.40;;;7.43;;
62610;SDS011;48683;48.084;17.272;2023-02-28T10:22:01;10.05;;;7.45;;
62610;SDS011;48683;48.084;17.272;2023-02-28T10:24:34;11.63;;;7.20;;
62610;SDS011;48683;48.084;17.272;2023-02-28T10:27:17;13.90;;;8.07;;
62610;SDS011;48683;48.084;17.272;2023-02-28T10:29:49;11.38;;;8.10;;
62610;SDS011;48683;48.084;17.272;2023-02-28T10:32:40;12.73;;;7.95;;
62610;SDS011;48683;48.084;17.272;2023-02-28T10:35:19;11.75;;;8.63;;
62610;SDS011;48683;48.084;17.272;2023-02-28T10:37:50;10.65;;;7.78;;
62610;SDS011;48683;48.084;17.272;2023-02-28T10:43:26;9.43;;;7.72;;
62610;SDS011;48683;48.084;17.272;2023-02-28T10:45:39;15.10;;;8.27;;
62610;SDS011;48683;48.084;17.272;2023-02-28T10:55:57;13.95;;;6.50;;
62610;SDS011;48683;48.084;17.272;2023-02-28T10:58:30;13.85;;;7.20;;
62610;SDS011;48683;48.084;17.272;2023-02-28T11:01:10;11.02;;;6.43;;
62610;SDS011;48683;48.084;17.272;2023-02-28T11:03:56;14.98;;;8.02;;
62610;SDS011;48683;48.084;17.272;2023-02-28T11:06:34;8.18;;;6.07;;
62610;SDS011;48683;48.084;17.272;2023-02-28T11:09:04;10.40;;;6.03;;
62610;SDS011;48683;48.084;17.272;2023-02-28T11:11:42;12.25;;;6.15;;
62610;SDS011;48683;48.084;17.272;2023-02-28T11:14:19;7.60;;;5.88;;
62610;SDS011;48683;48.084;17.272;2023-02-28T11:16:44;8.27;;;5.28;;
62610;SDS011;48683;48.084;17.272;2023-02-28T11:19:16;9.65;;;5.82;;
62610;SDS011;48683;48.084;17.272;2023-02-28T11:21:48;8.73;;;6.00;;
62610;SDS011;48683;48.084;17.272;2023-02-28T11:24:40;11.13;;;5.88;;
62610;SDS011;48683;48.084;17.272;2023-02-28T11:27:25;10.57;;;6.47;;
62610;SDS011;48683;48.084;17.272;2023-02-28T11:29:51;9.98;;;6.63;;
62610;SDS011;48683;48.084;17.272;2023-02-28T11:32:21;8.80;;;5.88;;
62610;SDS011;48683;48.084;17.272;2023-02-28T11:34:59;11.20;;;6.70;;
62610;SDS011;48683;48.084;17.272;2023-02-28T11:37:25;11.43;;;7.13;;
62610;SDS011;48683;48.084;17.272;2023-02-28T11:39:53;9.75;;;6.80;;
62610;SDS011;48683;48.084;17.272;2023-02-28T11:56:41;8.80;;;6.65;;
62610;SDS011;48683;48.084;17.272;2023-02-28T12:01:54;10.18;;;7.85;;
62610;SDS011;48683;48.084;17.272;2023-02-28T12:09:58;8.90;;;7.22;;
62610;SDS011;48683;48.084;17.272;2023-02-28T12:20:57;9.30;;;7.15;;
62610;SDS011;48683;48.084;17.272;2023-02-28T12:24:02;11.93;;;7.72;;
62610;SDS011;48683;48.084;17.272;2023-02-28T12:29:12;15.80;;;8.43;;
62610;SDS011;48683;48.084;17.272;2023-02-28T12:31:49;12.05;;;8.35;;
62610;SDS011;48683;48.084;17.272;2023-02-28T12:35:17;13.80;;;8.55;;
62610;SDS011;48683;48.084;17.272;2023-02-28T12:37:28;10.02;;;7.35;;
62610;SDS011;48683;48.084;17.272;2023-02-28T12:39:56;10.65;;;7.53;;
62610;SDS011;48683;48.084;17.272;2023-02-28T12:42:31;11.77;;;7.95;;
62610;SDS011;48683;48.084;17.272;2023-02-28T12:45:03;13.18;;;8.45;;
62610;SDS011;48683;48.084;17.272;2023-02-28T12:47:35;11.07;;;8.52;;
62610;SDS011;48683;48.084;17.272;2023-02-28T12:55:49;12.85;;;8.75;;
62610;SDS011;48683;48.084;17.272;2023-02-28T12:58:41;12.02;;;7.93;;
62610;SDS011;48683;48.084;17.272;2023-02-28T13:09:56;11.82;;;7.68;;
62610;SDS011;48683;48.084;17.272;2023-02-28T13:12:24;13.52;;;8.18;;
62610;SDS011;48683;48.084;17.272;2023-02-28T13:14:51;12.02;;;8.63;;
62610;SDS011;48683;48.084;17.272;2023-02-28T13:17:28;14.07;;;8.70;;
62610;SDS011;48683;48.084;17.272;2023-02-28T13:22:41;10.52;;;7.65;;
62610;SDS011;48683;48.084;17.272;2023-02-28T13:27:50;12.60;;;7.88;;
62610;SDS011;48683;48.084;17.272;2023-02-28T13:33:30;11.05;;;7.95;;
62610;SDS011;48683;48.084;17.272;2023-02-28T13:36:06;12.15;;;8.15;;
62610;SDS011;48683;48.084;17.272;2023-02-28T13:38:41;12.82;;;8.60;;
62610;SDS011;48683;48.084;17.272;2023-02-28T13:44:04;11.68;;;8.25;;
62610;SDS011;48683;48.084;17.272;2023-02-28T13:47:23;12.25;;;8.50;;
62610;SDS011;48683;48.084;17.272;2023-02-28T13:51:48;15.30;;;8.32;;
62610;SDS011;48683;48.084;17.272;2023-02-28T14:08:58;11.57;;;8.05;;
62610;SDS011;48683;48.084;17.272;2023-02-28T14:11:27;10.27;;;7.97;;
62610;SDS011;48683;48.084;17.272;2023-02-28T14:14:01;9.90;;;7.65;;
62610;SDS011;48683;48.084;17.272;2023-02-28T14:16:35;12.18;;;8.48;;
62610;SDS011;48683;48.084;17.272;2023-02-28T14:19:26;11.43;;;8.07;;
62610;SDS011;48683;48.084;17.272;2023-02-28T14:24:22;11.93;;;7.90;;
62610;SDS011;48683;48.084;17.272;2023-02-28T14:32:19;13.27;;;9.32;;
62610;SDS011;48683;48.084;17.272;2023-02-28T14:34:54;13.00;;;8.98;;
62610;SDS011;48683;48.084;17.272;2023-02-28T14:37:38;12.93;;;8.63;;
62610;SDS011;48683;48.084;17.272;2023-02-28T14:40:11;12.10;;;8.32;;
62610;SDS011;48683;48.084;17.272;2023-02-28T14:42:39;12.60;;;8.27;;
62610;SDS011;48683;48.084;17.272;2023-02-28T14:45:17;12.60;;;8.30;;
62610;SDS011;48683;48.084;17.272;2023-02-28T14:47:46;14.43;;;9.43;;
62610;SDS011;48683;48.084;17.272;2023-02-28T14:50:18;14.60;;;8.48;;
62610;SDS011;48683;48.084;17.272;2023-02-28T14:52:45;12.50;;;8.50;;
62610;SDS011;48683;48.084;17.272;2023-02-28T14:55:15;11.77;;;8.30;;
62610;SDS011;48683;48.084;17.272;2023-02-28T14:57:59;10.52;;;8.55;;
62610;SDS011;48683;48.084;17.272;2023-02-28T15:00:32;11.45;;;8.00;;
62610;SDS011;48683;48.084;17.272;2023-02-28T15:02:59;13.18;;;8.18;;
62610;SDS011;48683;48.084;17.272;2023-02-28T15:05:27;13.30;;;8.55;;
62610;SDS011;48683;48.084;17.272;2023-02-28T15:08:00;12.68;;;8.45;;
62610;SDS011;48683;48.084;17.272;2023-02-28T15:10:32;11.73;;;8.25;;
62610;SDS011;48683;48.084;17.272;2023-02-28T15:12:58;11.90;;;9.10;;
62610;SDS011;48683;48.084;17.272;2023-02-28T15:15:28;10.40;;;7.88;;
62610;SDS011;48683;48.084;17.272;2023-02-28T15:18:06;12.55;;;8.95;;
62610;SDS011;48683;48.084;17.272;2023-02-28T15:20:35;11.38;;;8.30;;
62610;SDS011;48683;48.084;17.272;2023-02-28T15:23:03;12.15;;;8.32;;
62610;SDS011;48683;48.084;17.272;2023-02-28T15:25:29;12.70;;;8.65;;
62610;SDS011;48683;48.084;17.272;2023-02-28T15:27:55;11.40;;;8.57;;
62610;SDS011;48683;48.084;17.272;2023-02-28T15:30:29;10.48;;;7.88;;
62610;SDS011;48683;48.084;17.272;2023-02-28T15:33:06;11.32;;;8.48;;
62610;SDS011;48683;48.084;17.272;2023-02-28T15:35:44;13.25;;;8.40;;
62610;SDS011;48683;48.084;17.272;2023-02-28T15:38:17;10.57;;;7.75;;
62610;SDS011;48683;48.084;17.272;2023-02-28T15:40:53;12.73;;;7.78;;
62610;SDS011;48683;48.084;17.272;2023-02-28T15:45:58;13.10;;;8.35;;
62610;SDS011;48683;48.084;17.272;2023-02-28T15:48:32;13.07;;;8.27;;
62610;SDS011;48683;48.084;17.272;2023-02-28T15:51:06;14.48;;;8.82;;
62610;SDS011;48683;48.084;17.272;2023-02-28T15:54:17;11.85;;;8.07;;
62610;SDS011;48683;48.084;17.272;2023-02-28T15:56:28;14.00;;;9.05;;
62610;SDS011;48683;48.084;17.272;2023-02-28T15:58:59;12.60;;;8.43;;
62610;SDS011;48683;48.084;17.272;2023-02-28T16:01:34;13.77;;;8.85;;
62610;SDS011;48683;48.084;17.272;2023-02-28T16:04:21;11.18;;;8.40;;
62610;SDS011;48683;48.084;17.272;2023-02-28T16:09:19;12.18;;;8.93;;
62610;SDS011;48683;48.084;17.272;2023-02-28T16:11:48;13.57;;;9.43;;
62610;SDS011;48683;48.084;17.272;2023-02-28T16:14:16;17.60;;;8.57;;
62610;SDS011;48683;48.084;17.272;2023-02-28T16:16:45;15.60;;;9.00;;
62610;SDS011;48683;48.084;17.272;2023-02-28T16:19:13;16.85;;;9.20;;
62610;SDS011;48683;48.084;17.272;2023-02-28T16:21:39;16.17;;;10.27;;
62610;SDS011;48683;48.084;17.272;2023-02-28T16:24:05;19.35;;;12.30;;
62610;SDS011;48683;48.084;17.272;2023-02-28T16:26:30;17.33;;;10.75;;
62610;SDS011;48683;48.084;17.272;2023-02-28T16:28:59;17.98;;;12.13;;
62610;SDS011;48683;48.084;17.272;2023-02-28T16:31:25;20.25;;;11.88;;
62610;SDS011;48683;48.084;17.272;2023-02-28T16:33:50;16.88;;;10.68;;
62610;SDS011;48683;48.084;17.272;2023-02-28T16:36:25;20.38;;;11.40;;
62610;SDS011;48683;48.084;17.272;2023-02-28T16:38:50;14.43;;;10.10;;
62610;SDS011;48683;48.084;17.272;2023-02-28T16:41:17;14.90;;;11.07;;
62610;SDS011;48683;48.084;17.272;2023-02-28T16:43:45;15.15;;;10.13;;